Time;durP1;ratioP1;P1;durP2;ratioP2;P2;SDS_P1;SDS_P2;PMS_P1;PMS_P2;Temp;Humidity;BMP_temperature;BMP_pressure;BME280_temperature;BME280_humidity;BME280_pressure;Samples;Min_cycle;Max_cycle;Signal;HPM_P1;HPM_P2
2022/02/04 00:20:06;;;;;;;12.13;7.67;;;8.00;99.90;;;;;;5092772;28;20959;-76
2022/02/04 00:23:43;;;;;;;12.40;7.83;;;8.10;99.90;;;;;;5092370;28;20454;-77
2022/02/04 00:31:25;;;;;;;11.30;8.00;;;8.00;99.90;;;;;;5092616;28;20458;-76
2022/02/04 00:33:55;;;;;;;11.90;7.20;;;8.00;99.90;;;;;;5074362;28;20439;-77
2022/02/04 00:36:27;;;;;;;11.47;8.17;;;8.10;99.90;;;;;;5073970;28;20835;-76
2022/02/04 00:38:55;;;;;;;10.40;7.93;;;8.20;99.90;;;;;;5074221;28;20412;-77
2022/02/04 00:41:25;;;;;;;9.97;6.77;;;8.20;99.90;;;;;;5074371;28;20420;-77
2022/02/04 00:46:53;;;;;;;11.90;7.33;;;8.20;99.90;;;;;;5074270;28;20542;-78
2022/02/04 00:49:22;;;;;;;12.20;6.80;;;8.20;99.90;;;;;;5076559;28;20485;-78
2022/02/04 00:52:08;;;;;;;9.77;6.40;;;8.30;99.90;;;;;;5060437;28;20460;-78
2022/02/04 00:57:14;;;;;;;9.90;6.37;;;8.20;99.90;;;;;;5057891;28;20445;-78
2022/02/04 01:26:54;;;;;;;11.83;6.03;;;8.10;99.90;;;;;;5060400;28;20433;-78
2022/02/04 01:29:21;;;;;;;6.77;5.80;;;8.10;99.90;;;;;;5041531;28;20460;-78
2022/02/04 01:31:47;;;;;;;8.93;5.70;;;8.20;99.90;;;;;;5042722;28;20502;-77
2022/02/04 01:34:14;;;;;;;7.80;5.83;;;8.20;99.90;;;;;;5041622;28;20584;-78
2022/02/04 01:36:39;;;;;;;8.30;5.40;;;8.20;99.90;;;;;;5041924;28;20939;-77
2022/02/04 01:39:05;;;;;;;9.67;5.40;;;8.30;99.90;;;;;;5041547;28;20426;-78
2022/02/04 01:41:31;;;;;;;10.77;5.90;;;8.30;99.90;;;;;;5042116;28;20477;-79
2022/02/04 01:43:57;;;;;;;7.20;5.23;;;8.20;99.90;;;;;;5041767;28;20257;-78
2022/02/04 01:46:23;;;;;;;8.17;4.90;;;8.20;99.90;;;;;;5042854;28;20578;-78
2022/02/04 01:48:49;;;;;;;9.03;5.00;;;8.10;99.90;;;;;;5041467;28;20414;-78
2022/02/04 01:51:17;;;;;;;7.47;5.73;;;8.20;99.90;;;;;;5041574;28;20606;-78
2022/02/04 01:53:43;;;;;;;7.83;5.10;;;8.30;99.90;;;;;;5041080;28;21017;-78
2022/02/04 01:56:11;;;;;;;8.70;5.37;;;8.30;99.90;;;;;;5041824;28;20468;-78
2022/02/04 01:58:39;;;;;;;8.90;5.90;;;8.30;99.90;;;;;;5041210;28;20421;-79
2022/02/04 02:01:05;;;;;;;8.07;5.43;;;8.30;99.90;;;;;;5041143;28;20838;-78
2022/02/04 02:03:31;;;;;;;7.80;5.70;;;8.30;99.90;;;;;;5040989;28;20980;-79
2022/02/04 02:06:06;;;;;;;11.67;5.90;;;8.30;99.90;;;;;;5041266;28;20429;-77
2022/02/04 02:08:32;;;;;;;8.37;5.00;;;8.30;99.90;;;;;;5040967;28;20456;-78
2022/02/04 02:10:58;;;;;;;7.13;4.80;;;8.30;99.90;;;;;;5041331;28;20543;-78
2022/02/04 02:44:14;;;;;;;8.50;4.43;;;8.40;99.90;;;;;;5059403;28;20452;-78
2022/02/04 02:47:30;;;;;;;6.17;4.67;;;8.40;99.90;;;;;;5040233;28;20422;-78
2022/02/04 02:49:52;;;;;;;5.80;4.17;;;8.50;99.90;;;;;;5045339;28;20832;-78
2022/02/04 02:52:38;;;;;;;6.60;4.40;;;8.40;99.90;;;;;;5058404;28;20486;-78
2022/02/04 03:03:08;;;;;;;7.30;4.43;;;8.40;99.90;;;;;;5058944;28;20195;-78
2022/02/04 03:05:34;;;;;;;7.67;4.73;;;8.40;99.90;;;;;;5039708;28;20842;-78
2022/02/04 03:08:00;;;;;;;7.33;5.07;;;8.40;99.90;;;;;;5040668;28;20667;-78
2022/02/04 03:10:26;;;;;;;7.40;4.83;;;8.40;99.90;;;;;;5040673;28;20465;-78
2022/02/04 03:12:53;;;;;;;7.63;4.97;;;8.50;99.90;;;;;;5040500;28;20939;-78
2022/02/04 03:15:20;;;;;;;7.70;5.40;;;8.40;99.90;;;;;;5040456;28;20945;-78
2022/02/04 03:17:51;;;;;;;6.50;4.33;;;8.50;99.90;;;;;;5039636;28;20826;-78
2022/02/04 03:20:18;;;;;;;7.83;4.30;;;8.50;99.90;;;;;;5039295;28;20959;-78
2022/02/04 03:22:46;;;;;;;7.30;4.67;;;8.60;99.90;;;;;;5037287;28;20521;-77
2022/02/04 03:25:13;;;;;;;7.53;5.17;;;8.60;99.90;;;;;;5036727;28;20479;-77
2022/02/04 03:27:48;;;;;;;10.27;5.13;;;8.60;99.90;;;;;;5036786;28;20414;-78
2022/02/04 03:30:19;;;;;;;6.60;4.30;;;8.60;99.90;;;;;;5036915;28;20806;-78
2022/02/04 03:32:51;;;;;;;9.30;4.80;;;8.60;99.90;;;;;;5036555;28;20519;-77
2022/02/04 03:35:22;;;;;;;8.30;5.30;;;8.50;99.90;;;;;;5036887;28;20418;-78
2022/02/04 03:37:50;;;;;;;8.03;5.03;;;8.50;99.90;;;;;;5036886;28;20422;-77
2022/02/04 03:40:17;;;;;;;5.50;4.27;;;8.50;99.90;;;;;;5036929;28;20423;-78
2022/02/04 03:42:44;;;;;;;7.30;4.60;;;8.50;99.90;;;;;;5037223;28;20446;-77
2022/02/04 03:45:10;;;;;;;9.30;4.87;;;8.50;99.90;;;;;;5036431;28;20438;-78
2022/02/04 03:47:36;;;;;;;6.90;4.50;;;8.40;99.90;;;;;;5037269;28;20430;-77
2022/02/04 03:50:03;;;;;;;7.07;4.73;;;8.40;99.90;;;;;;5037075;28;20633;-78
2022/02/04 03:52:28;;;;;;;6.93;4.67;;;8.40;99.90;;;;;;5036948;28;20192;-78
2022/02/04 03:54:54;;;;;;;8.03;5.20;;;8.40;99.90;;;;;;5037350;28;20444;-78
2022/02/04 03:57:20;;;;;;;8.00;4.27;;;8.50;99.90;;;;;;5036912;28;20237;-78
2022/02/04 03:59:46;;;;;;;7.07;4.33;;;8.50;99.90;;;;;;5037117;28;20273;-77
2022/02/04 04:02:13;;;;;;;7.27;4.90;;;8.50;99.90;;;;;;5037106;28;20184;-78
2022/02/04 04:04:39;;;;;;;6.13;3.80;;;8.50;99.90;;;;;;5037047;28;20236;-78
2022/02/04 04:07:05;;;;;;;8.10;4.83;;;8.50;99.90;;;;;;5038262;28;20513;-79
2022/02/04 04:09:34;;;;;;;5.80;4.00;;;8.40;99.90;;;;;;5037953;28;20516;-78
2022/02/04 04:11:59;;;;;;;6.23;4.00;;;8.50;99.90;;;;;;5037482;28;20207;-78
2022/02/04 04:14:25;;;;;;;5.40;3.80;;;8.50;99.90;;;;;;5037591;28;20847;-79
2022/02/04 04:16:51;;;;;;;5.80;4.03;;;8.40;99.90;;;;;;5037534;28;20179;-78
2022/02/04 04:19:17;;;;;;;5.50;4.07;;;8.50;99.90;;;;;;5037368;28;20328;-79
2022/02/04 04:21:43;;;;;;;5.73;4.13;;;8.50;99.90;;;;;;5038371;28;20182;-78
2022/02/04 04:24:08;;;;;;;6.60;3.80;;;8.50;99.90;;;;;;5037670;28;20213;-78
2022/02/04 04:26:38;;;;;;;6.70;4.30;;;8.50;99.90;;;;;;5037481;28;20187;-78
2022/02/04 04:29:05;;;;;;;7.30;4.23;;;8.50;99.90;;;;;;5037852;28;20194;-78
2022/02/04 04:31:30;;;;;;;7.17;4.20;;;8.50;99.90;;;;;;5037361;28;20472;-78
2022/02/04 04:33:56;;;;;;;7.13;4.47;;;8.50;99.90;;;;;;5038406;28;20469;-78
2022/02/04 04:36:22;;;;;;;4.90;3.57;;;8.50;99.90;;;;;;5038208;28;20195;-78
2022/02/04 04:38:56;;;;;;;6.93;4.07;;;8.50;99.90;;;;;;5038131;28;20175;-78
2022/02/04 04:41:36;;;;;;;5.00;3.27;;;8.50;99.90;;;;;;5037696;28;20505;-78
2022/02/04 04:44:26;;;;;;;6.10;4.10;;;8.50;99.90;;;;;;5037323;28;20473;-78
2022/02/04 05:28:09;;;;;;;5.23;3.43;;;8.50;99.90;;;;;;5055162;28;20443;-78
2022/02/04 05:30:35;;;;;;;4.70;3.00;;;8.50;99.90;;;;;;5037487;28;20453;-78
2022/02/04 05:33:00;;;;;;;6.03;3.97;;;8.50;99.90;;;;;;5037213;28;20456;-78
2022/02/04 05:35:26;;;;;;;5.43;3.60;;;8.50;99.90;;;;;;5037785;28;20176;-78
2022/02/04 05:37:52;;;;;;;5.30;3.53;;;8.50;99.90;;;;;;5037577;28;20655;-78
2022/02/04 05:40:21;;;;;;;4.87;3.20;;;8.60;99.90;;;;;;5038109;28;20180;-78
2022/02/04 05:42:58;;;;;;;9.00;3.77;;;8.60;99.90;;;;;;5037456;28;20215;-78
2022/02/04 05:45:27;;;;;;;6.30;4.13;;;8.60;99.90;;;;;;5041077;28;20460;-78
2022/02/04 05:47:59;;;;;;;7.63;3.67;;;8.60;99.90;;;;;;5041328;28;20423;-78
2022/02/04 05:53:34;;;;;;;5.13;3.40;;;8.50;99.90;;;;;;4958686;28;20792;-78
2022/02/04 06:22:28;;;;;;;3.20;1.97;;;8.60;99.90;;;;;;5022068;28;20458;-79
2022/02/04 06:24:56;;;;;;;4.57;2.30;;;8.50;99.90;;;;;;5042924;28;20418;-78
2022/02/04 06:27:24;;;;;;;4.83;3.00;;;8.40;99.90;;;;;;5041858;28;20415;-79
2022/02/04 06:29:52;;;;;;;5.07;1.90;;;8.40;99.90;;;;;;5042271;28;20418;-79
2022/02/04 06:32:19;;;;;;;4.23;2.00;;;8.40;99.90;;;;;;5041978;28;20830;-77
2022/02/04 06:34:45;;;;;;;4.00;2.50;;;8.30;99.90;;;;;;5040282;28;20418;-79
2022/02/04 06:37:12;;;;;;;4.10;1.93;;;8.40;99.90;;;;;;5039940;28;20996;-79
2022/02/04 06:39:37;;;;;;;4.13;2.27;;;8.30;99.90;;;;;;5039974;28;20493;-78
2022/02/04 06:42:04;;;;;;;3.13;1.83;;;8.30;99.90;;;;;;5039927;28;20461;-78
2022/02/04 06:44:31;;;;;;;6.70;3.10;;;8.30;99.90;;;;;;5057154;22;20406;-80
2022/02/04 06:46:57;;;;;;;3.63;2.23;;;8.30;99.90;;;;;;5076634;28;20469;-78
2022/02/04 06:49:23;;;;;;;4.10;2.37;;;8.30;99.90;;;;;;5076839;28;20404;-79
2022/02/04 06:51:49;;;;;;;4.20;2.40;;;8.30;99.90;;;;;;5076501;28;20464;-80
2022/02/04 06:54:14;;;;;;;5.33;2.63;;;8.30;99.90;;;;;;5076670;28;20824;-79
2022/02/04 06:56:40;;;;;;;5.00;3.13;;;8.30;99.90;;;;;;5076280;28;20660;-78
2022/02/04 06:59:06;;;;;;;4.63;2.73;;;8.40;99.90;;;;;;5076564;28;20423;-78
2022/02/04 07:01:33;;;;;;;4.80;2.90;;;8.40;99.90;;;;;;5076310;28;20193;-80
2022/02/04 07:04:04;;;;;;;9.90;3.63;;;8.30;99.90;;;;;;5076617;28;20521;-80
2022/02/04 07:06:35;;;;;;;5.97;3.23;;;8.20;99.90;;;;;;5075815;28;20805;-79
2022/02/04 07:21:51;;;;;;;6.07;3.90;;;8.10;99.90;;;;;;5094701;28;20177;-78
2022/02/04 07:24:17;;;;;;;7.97;4.40;;;8.00;99.90;;;;;;5076169;28;20441;-79
2022/02/04 07:26:43;;;;;;;5.70;3.47;;;8.10;99.90;;;;;;5075890;28;20681;-78
2022/02/04 07:29:09;;;;;;;5.90;4.43;;;8.10;99.90;;;;;;5076352;28;20687;-78
2022/02/04 07:31:38;;;;;;;7.90;4.20;;;8.20;99.90;;;;;;5076169;28;20198;-78
2022/02/04 07:34:41;;;;;;;5.30;3.20;;;8.20;99.90;;;;;;5076107;28;20194;-78
2022/02/04 07:42:19;;;;;;;6.20;3.87;;;8.20;99.90;;;;;;5094399;28;20531;-79
2022/02/04 07:44:44;;;;;;;8.50;2.97;;;8.10;99.90;;;;;;5076013;28;20476;-78
2022/02/04 07:47:11;;;;;;;6.33;3.10;;;8.20;99.90;;;;;;5075760;28;20181;-79
2022/02/04 07:49:37;;;;;;;5.43;3.83;;;8.30;99.90;;;;;;5076056;28;20597;-78
2022/02/04 07:52:03;;;;;;;5.80;3.50;;;8.30;99.90;;;;;;5075770;28;20511;-78
2022/02/04 07:54:29;;;;;;;6.13;3.00;;;8.40;99.90;;;;;;5076187;28;20185;-78
2022/02/04 07:56:56;;;;;;;7.73;3.50;;;8.40;99.90;;;;;;5075354;28;20418;-78
2022/02/04 07:59:22;;;;;;;7.40;3.83;;;8.50;99.90;;;;;;5076482;28;20457;-78
2022/02/04 08:01:51;;;;;;;6.83;3.27;;;8.50;99.90;;;;;;5075797;28;20523;-78
2022/02/04 08:04:22;;;;;;;5.90;3.80;;;8.50;99.90;;;;;;5075813;28;20235;-78
2022/02/04 08:06:56;;;;;;;4.47;2.67;;;8.50;99.90;;;;;;5075164;28;20428;-78
2022/02/04 08:09:42;;;;;;;6.00;3.30;;;8.60;99.90;;;;;;5075755;28;20938;-78
2022/02/04 08:20:21;;;;;;;7.20;3.63;;;8.70;99.90;;;;;;5093982;28;20407;-78
2022/02/04 08:23:04;;;;;;;5.50;3.60;;;8.70;99.90;;;;;;5075911;28;20436;-79
2022/02/04 08:36:14;;;;;;;6.90;3.63;;;8.70;99.90;;;;;;5092669;28;20177;-78
2022/02/04 08:39:07;;;;;;;5.90;3.13;;;8.70;99.90;;;;;;5073956;28;20424;-78
2022/02/04 08:52:59;;;;;;;5.80;3.00;;;9.00;99.90;;;;;;5049340;28;20474;-78
2022/02/04 08:55:39;;;;;;;4.40;2.47;;;9.10;99.90;;;;;;5033037;28;20430;-77
2022/02/04 08:58:25;;;;;;;4.33;2.30;;;9.20;99.90;;;;;;5058575;28;20444;-78
2022/02/04 09:06:07;;;;;;;3.97;2.23;;;9.40;99.90;;;;;;5092531;28;20870;-79
2022/02/04 09:08:35;;;;;;;4.37;2.23;;;9.40;99.90;;;;;;5074785;28;20423;-80
2022/02/04 09:11:05;;;;;;;4.10;2.20;;;9.50;99.90;;;;;;5074257;28;20552;-79
2022/02/04 09:19:07;;;;;;;2.90;1.87;;;9.80;99.90;;;;;;5094087;28;20465;-80
2022/02/04 09:24:14;;;;;;;3.33;1.70;;;9.90;99.90;;;;;;5096672;28;20432;-78
2022/02/04 09:26:44;;;;;;;3.80;2.13;;;10.00;99.90;;;;;;5077765;28;20420;-78
2022/02/04 09:29:10;;;;;;;3.37;1.90;;;10.10;99.90;;;;;;5078013;28;20412;-79
2022/02/04 09:31:38;;;;;;;5.70;2.93;;;10.10;99.90;;;;;;5078082;28;20877;-78
2022/02/04 09:34:05;;;;;;;3.80;1.83;;;10.10;99.90;;;;;;5077966;28;20432;-79
2022/02/04 09:36:32;;;;;;;3.57;2.00;;;10.10;99.90;;;;;;5061337;28;20818;-80
2022/02/04 09:39:01;;;;;;;3.17;1.80;;;10.20;99.90;;;;;;5077547;28;20420;-78
2022/02/04 09:41:27;;;;;;;4.53;2.37;;;10.30;99.90;;;;;;5077727;28;20757;-78
2022/02/04 09:43:53;;;;;;;3.90;1.73;;;10.40;99.90;;;;;;5077736;28;20435;-78
2022/02/04 09:46:20;;;;;;;3.17;1.60;;;10.40;99.90;;;;;;5077493;28;20754;-78
2022/02/04 09:48:55;;;;;;;3.47;1.83;;;10.40;99.90;;;;;;5077365;28;20470;-78
2022/02/04 09:51:28;;;;;;;2.90;1.70;;;10.30;99.90;;;;;;5078268;28;20550;-78
2022/02/04 10:18:39;;;;;;;2.50;1.40;;;10.70;99.90;;;;;;5097457;28;20779;-78
2022/02/04 10:21:09;;;;;;;2.60;1.40;;;10.90;99.90;;;;;;5078317;28;20416;-78
2022/02/04 10:23:58;;;;;;;2.20;1.00;;;11.10;99.90;;;;;;5077238;28;20827;-78
2022/02/04 10:26:25;;;;;;;3.03;1.50;;;11.30;99.90;;;;;;5078153;28;20908;-78
2022/02/04 10:28:52;;;;;;;2.30;1.10;;;11.30;99.90;;;;;;5078834;28;20428;-79
2022/02/04 10:31:26;;;;;;;2.50;1.17;;;11.00;99.90;;;;;;5077861;28;20482;-78
2022/02/04 10:34:01;;;;;;;2.47;1.03;;;11.00;99.90;;;;;;5078391;28;20819;-78
2022/02/04 10:45:38;;;;;;;2.70;1.20;;;11.00;99.90;;;;;;5096028;28;20435;-78
2022/02/04 10:47:40;;;;;;;2.20;1.00;;;11.10;99.90;;;;;;5085021;28;20436;-78
2022/02/04 10:50:17;;;;;;;2.47;1.10;;;10.90;99.90;;;;;;5078090;28;20436;-78
2022/02/04 10:53:06;;;;;;;2.50;1.23;;;11.00;99.90;;;;;;5078361;28;20432;-78
2022/02/04 10:58:31;;;;;;;2.50;1.10;;;10.90;99.90;;;;;;5095883;28;20399;-79
2022/02/04 11:03:32;;;;;;;2.10;1.00;;;10.90;99.90;;;;;;5096561;28;20451;-78
2022/02/04 11:08:59;;;;;;;2.10;0.90;;;10.70;99.90;;;;;;5095959;28;20429;-78
2022/02/04 11:12:01;;;;;;;2.40;0.90;;;10.60;99.90;;;;;;5077884;28;20482;-78
2022/02/04 11:33:49;;;;;;;2.40;1.03;;;10.50;99.90;;;;;;5094611;28;20420;-78
2022/02/04 11:54:46;;;;;;;2.30;1.00;;;9.90;99.90;;;;;;5094213;28;20796;-78
2022/02/04 11:57:16;;;;;;;2.30;0.90;;;9.80;99.90;;;;;;5064578;28;20413;-80
2022/02/04 11:59:48;;;;;;;2.87;1.10;;;9.80;99.90;;;;;;5075538;28;20847;-80
2022/02/04 12:02:26;;;;;;;3.60;1.23;;;9.80;99.90;;;;;;5075648;28;20426;-80
2022/02/04 12:05:11;;;;;;;3.10;1.30;;;9.90;99.90;;;;;;5075425;28;20422;-80
2022/02/04 12:07:40;;;;;;;4.50;1.23;;;9.90;99.90;;;;;;5075028;28;20823;-78
2022/02/04 12:10:12;;;;;;;2.10;1.00;;;10.00;99.90;;;;;;5075080;28;20428;-78
2022/02/04 12:12:53;;;;;;;3.33;1.40;;;10.00;99.90;;;;;;5075129;28;20495;-78
2022/02/04 12:15:28;;;;;;;2.53;1.47;;;10.00;99.90;;;;;;5074866;28;20451;-79
2022/02/04 12:18:00;;;;;;;2.83;1.40;;;9.90;99.90;;;;;;5074979;28;20914;-78
2022/02/04 12:20:48;;;;;;;2.23;1.20;;;9.90;99.90;;;;;;5074767;28;20495;-79
2022/02/04 12:23:32;;;;;;;2.77;1.10;;;9.90;99.90;;;;;;5075082;28;20432;-78
2022/02/04 12:26:08;;;;;;;2.30;1.03;;;9.90;99.90;;;;;;5074854;28;20832;-79
2022/02/04 12:28:55;;;;;;;2.43;1.20;;;9.90;99.90;;;;;;5074843;28;20411;-78
2022/02/04 12:31:30;;;;;;;3.47;1.50;;;9.80;99.90;;;;;;5074787;28;21035;-78
2022/02/04 12:34:00;;;;;;;3.03;1.23;;;9.80;99.90;;;;;;5074742;28;20769;-79
2022/02/04 12:36:39;;;;;;;2.80;1.30;;;9.80;99.90;;;;;;5074568;28;20511;-80
2022/02/04 12:39:11;;;;;;;3.00;1.20;;;9.80;99.90;;;;;;5075155;28;20412;-78
2022/02/04 12:41:41;;;;;;;2.57;1.00;;;9.90;99.90;;;;;;5074823;28;20826;-78
2022/02/04 12:44:21;;;;;;;2.83;1.40;;;10.00;99.90;;;;;;5074600;28;20778;-78
2022/02/04 12:47:00;;;;;;;2.57;1.30;;;10.00;99.90;;;;;;5079148;22;20666;-79
2022/02/04 12:49:28;;;;;;;2.87;1.20;;;10.00;99.90;;;;;;5054204;28;20500;-79
2022/02/04 12:54:35;;;;;;;3.03;1.60;;;10.00;99.90;;;;;;5075900;28;20409;-79
2022/02/04 13:08:13;;;;;;;4.93;3.70;;;9.80;99.90;;;;;;5075738;28;20451;-79
2022/02/04 13:10:39;;;;;;;3.97;1.90;;;9.80;99.90;;;;;;5057674;28;20472;-79
2022/02/04 13:13:14;;;;;;;2.63;1.33;;;9.90;99.90;;;;;;5075585;28;20409;-80
2022/02/04 13:15:42;;;;;;;3.30;1.83;;;9.90;99.90;;;;;;5057350;28;20417;-79
2022/02/04 13:18:10;;;;;;;3.40;2.00;;;9.80;99.90;;;;;;5057676;28;20836;-80
2022/02/04 13:20:39;;;;;;;2.50;1.50;;;9.80;99.90;;;;;;5057692;28;20860;-79
2022/02/04 13:23:10;;;;;;;4.20;1.97;;;9.90;99.90;;;;;;5075363;28;20413;-79
2022/02/04 13:25:40;;;;;;;3.23;1.50;;;9.90;99.90;;;;;;5057400;28;20462;-79
2022/02/04 13:28:08;;;;;;;4.10;2.03;;;9.90;99.90;;;;;;5057193;28;20413;-79
2022/02/04 13:30:36;;;;;;;3.57;2.27;;;9.90;99.90;;;;;;5075165;28;20911;-80
2022/02/04 13:33:03;;;;;;;3.30;1.33;;;9.90;99.90;;;;;;5075331;28;20416;-79
2022/02/04 13:35:31;;;;;;;3.17;1.37;;;9.90;99.90;;;;;;5075064;28;20416;-79
2022/02/04 13:38:06;;;;;;;2.57;1.60;;;10.00;99.90;;;;;;5056976;28;20490;-79
2022/02/04 13:41:15;;;;;;;6.43;2.43;;;9.90;99.90;;;;;;5057342;28;20425;-79
2022/02/04 13:44:09;;;;;;;2.97;1.40;;;9.90;99.90;;;;;;5057183;28;21017;-78
2022/02/04 13:46:49;;;;;;;2.90;1.60;;;10.00;99.90;;;;;;5073674;28;20493;-79
2022/02/04 13:49:36;;;;;;;3.47;1.60;;;10.00;99.90;;;;;;5057006;28;21206;-80
2022/02/04 14:00:09;;;;;;;3.90;1.90;;;10.50;99.90;;;;;;5074750;28;20934;-79
2022/02/04 14:02:56;;;;;;;2.93;1.80;;;10.60;99.90;;;;;;5056560;28;20431;-79
2022/02/04 14:05:32;;;;;;;3.90;2.17;;;10.70;99.90;;;;;;5055687;28;20417;-79
2022/02/04 14:08:14;;;;;;;3.20;1.40;;;10.70;99.90;;;;;;5073972;28;20844;-79
2022/02/04 14:11:02;;;;;;;2.93;1.17;;;10.50;99.90;;;;;;5056418;28;20460;-80
2022/02/04 14:13:29;;;;;;;4.10;1.43;;;10.30;99.90;;;;;;5056478;28;20431;-79
2022/02/04 14:15:59;;;;;;;3.20;1.43;;;10.20;99.90;;;;;;5056241;28;20449;-79
2022/02/04 14:18:27;;;;;;;3.40;1.50;;;10.20;99.90;;;;;;5056054;28;20463;-79
2022/02/04 14:20:53;;;;;;;3.77;1.70;;;10.30;99.90;;;;;;5074195;28;20421;-79
2022/02/04 14:23:20;;;;;;;4.90;1.50;;;10.40;99.90;;;;;;5074200;28;20819;-79
2022/02/04 14:26:01;;;;;;;2.80;1.30;;;10.60;99.90;;;;;;5074174;28;20417;-79
2022/02/04 14:28:53;;;;;;;3.77;1.50;;;10.70;99.90;;;;;;5073799;28;20413;-79
2022/02/04 15:08:55;;;;;;;3.20;2.03;;;10.40;99.90;;;;;;5073988;28;20436;-79
2022/02/04 15:11:27;;;;;;;2.67;1.40;;;10.40;99.90;;;;;;5073412;28;20481;-79
2022/02/04 15:13:53;;;;;;;3.53;1.30;;;10.30;99.90;;;;;;5073830;28;20420;-79
2022/02/04 15:16:18;;;;;;;3.37;1.37;;;10.30;99.90;;;;;;5073261;28;20979;-81
2022/02/04 15:18:44;;;;;;;3.70;1.40;;;10.30;99.90;;;;;;5055747;28;20179;-80
2022/02/04 15:21:15;;;;;;;3.10;1.57;;;10.30;99.90;;;;;;5074187;28;20179;-81
2022/02/04 15:23:42;;;;;;;2.30;1.20;;;10.30;99.90;;;;;;5056306;28;20210;-79
2022/02/04 15:26:11;;;;;;;3.60;1.63;;;10.30;99.90;;;;;;5056266;28;20452;-80
2022/02/04 15:28:43;;;;;;;3.57;1.47;;;10.30;99.90;;;;;;5056007;28;20421;-80
2022/02/04 15:31:29;;;;;;;5.23;1.70;;;10.20;99.90;;;;;;5055810;28;20963;-80
2022/02/04 15:33:54;;;;;;;2.33;1.10;;;10.20;99.90;;;;;;5056398;28;20421;-80
2022/02/04 15:36:28;;;;;;;2.60;2.20;;;10.10;99.90;;;;;;5074502;28;20973;-81
2022/02/04 15:38:54;;;;;;;3.80;1.50;;;9.90;99.90;;;;;;5073963;28;20168;-79
2022/02/04 15:41:22;;;;;;;2.50;1.20;;;9.70;99.90;;;;;;5073791;28;21033;-79
2022/02/04 15:43:53;;;;;;;2.67;1.20;;;9.40;99.90;;;;;;5073717;28;20506;-78
2022/02/04 15:52:01;;;;;;;2.73;1.20;;;9.10;99.90;;;;;;5073743;28;20467;-80
2022/02/04 15:57:39;;;;;;;2.20;1.20;;;8.70;99.90;;;;;;5073411;28;20928;-80
2022/02/04 16:01:15;;;;;;;4.80;1.60;;;8.60;99.90;;;;;;5073701;28;20880;-79
2022/02/04 16:03:18;;;;;;;2.30;1.17;;;8.40;99.90;;;;;;5060148;28;20426;-80
2022/02/04 16:05:44;;;;;;;3.03;1.03;;;8.40;99.90;;;;;;5060498;28;20413;-81
2022/02/04 16:08:14;;;;;;;2.90;1.47;;;8.30;99.90;;;;;;5059874;28;20418;-80
2022/02/04 16:10:59;;;;;;;3.50;1.20;;;8.20;99.90;;;;;;5078420;28;20428;-81
2022/02/04 16:16:04;;;;;;;2.40;1.20;;;8.30;99.90;;;;;;5078529;28;20405;-80
2022/02/04 16:18:37;;;;;;;3.13;1.07;;;8.20;99.90;;;;;;5059487;28;20417;-80
2022/02/04 16:21:14;;;;;;;2.83;1.20;;;8.20;99.90;;;;;;5078165;28;20508;-80
2022/02/04 16:24:00;;;;;;;4.10;1.30;;;8.20;99.90;;;;;;5060258;28;20425;-80
2022/02/04 16:26:48;;;;;;;2.97;1.00;;;8.30;99.90;;;;;;5059770;28;20437;-79
2022/02/04 16:29:11;;;;;;;3.53;1.80;;;8.30;99.90;;;;;;5076715;28;20427;-80
2022/02/04 16:31:37;;;;;;;3.40;1.40;;;8.30;99.90;;;;;;5077548;28;20537;-80
2022/02/04 16:34:08;;;;;;;4.00;1.40;;;8.30;99.90;;;;;;5059539;28;20553;-79
2022/02/04 16:36:42;;;;;;;3.00;1.40;;;8.30;99.90;;;;;;5077414;28;20187;-81
2022/02/04 16:39:10;;;;;;;5.70;1.50;;;8.30;99.90;;;;;;5077421;28;20409;-81
2022/02/04 16:42:03;;;;;;;2.67;1.50;;;8.20;99.90;;;;;;5059017;28;20432;-79
2022/02/04 16:44:31;;;;;;;4.00;1.70;;;8.10;99.90;;;;;;5076748;28;20418;-81
2022/02/04 16:46:58;;;;;;;3.20;1.70;;;8.10;99.90;;;;;;5075489;28;20518;-81
2022/02/04 16:49:23;;;;;;;4.27;2.10;;;8.00;99.90;;;;;;5057439;28;20421;-81
2022/02/04 16:51:49;;;;;;;2.97;1.60;;;8.00;99.90;;;;;;5076216;28;20506;-82
2022/02/04 16:54:18;;;;;;;2.97;1.43;;;7.70;99.90;;;;;;5075844;28;20178;-81
2022/02/04 16:56:44;;;;;;;2.90;1.60;;;7.50;99.90;;;;;;5057586;28;20266;-81
2022/02/04 16:59:10;;;;;;;2.50;1.30;;;7.20;99.90;;;;;;5076044;28;20808;-82
2022/02/04 17:01:36;;;;;;;2.67;1.63;;;6.90;99.90;;;;;;5058221;28;20470;-81
2022/02/04 17:04:03;;;;;;;3.57;2.07;;;6.70;99.90;;;;;;5076240;28;20413;-80
2022/02/04 17:06:35;;;;;;;2.50;1.30;;;6.50;99.90;;;;;;5075905;28;20187;-80
2022/02/04 17:09:20;;;;;;;2.30;1.10;;;6.40;99.90;;;;;;5056817;28;20428;-81
2022/02/04 17:11:49;;;;;;;2.40;1.03;;;6.10;99.90;;;;;;5057641;28;20472;-81
2022/02/04 17:14:16;;;;;;;2.20;0.93;;;6.00;99.90;;;;;;5057497;28;20444;-81
2022/02/04 17:16:42;;;;;;;2.27;1.17;;;5.80;99.90;;;;;;5057019;28;20508;-80
2022/02/04 17:19:10;;;;;;;2.20;1.17;;;5.70;99.90;;;;;;5076264;28;20414;-82
2022/02/04 17:21:38;;;;;;;2.90;1.50;;;5.70;99.90;;;;;;5056891;28;20846;-81
2022/02/04 17:24:04;;;;;;;2.20;1.10;;;5.60;99.90;;;;;;5057195;28;20450;-81
2022/02/04 17:26:29;;;;;;;2.43;1.13;;;5.50;99.90;;;;;;5056737;28;20880;-81
2022/02/04 17:28:55;;;;;;;2.67;1.27;;;5.50;99.90;;;;;;5075467;28;20446;-81
2022/02/04 17:31:21;;;;;;;3.70;1.60;;;5.40;99.90;;;;;;5075004;28;20205;-81
2022/02/04 17:33:47;;;;;;;2.70;1.40;;;5.50;99.90;;;;;;5074865;28;20184;-80
2022/02/04 17:36:13;;;;;;;3.00;1.60;;;5.50;99.90;;;;;;5074504;28;20276;-81
2022/02/04 17:38:39;;;;;;;2.90;1.47;;;5.40;99.90;;;;;;5074607;28;20451;-80
2022/02/04 17:41:08;;;;;;;3.10;1.70;;;5.40;99.90;;;;;;5059615;28;20878;-81
2022/02/04 17:43:34;;;;;;;3.13;1.70;;;5.50;99.90;;;;;;5077901;28;20419;-80
2022/02/04 17:46:00;;;;;;;3.17;2.03;;;5.40;99.90;;;;;;5060007;28;20427;-80
2022/02/04 17:48:36;;;;;;;3.07;1.90;;;5.50;99.90;;;;;;5059960;28;20443;-81
2022/02/04 17:53:45;;;;;;;3.93;3.20;;;5.50;99.90;;;;;;5078532;28;20537;-79
2022/02/04 17:56:27;;;;;;;3.60;2.90;;;5.50;99.90;;;;;;5078162;28;20429;-79
2022/02/04 18:01:53;;;;;;;4.50;3.27;;;5.50;99.90;;;;;;5078104;28;20424;-81
2022/02/04 18:07:12;;;;;;;6.47;5.20;;;5.60;99.90;;;;;;5078084;28;20436;-78
2022/02/04 18:09:43;;;;;;;6.30;5.40;;;5.60;99.90;;;;;;5059715;28;20414;-80
2022/02/04 18:12:10;;;;;;;8.50;6.33;;;5.60;99.90;;;;;;5077855;28;21014;-81
2022/02/04 18:14:37;;;;;;;7.87;6.00;;;5.50;99.90;;;;;;5059484;28;20433;-81
2022/02/04 18:17:04;;;;;;;8.93;6.30;;;5.50;99.90;;;;;;5076821;28;20799;-80
2022/02/04 18:19:30;;;;;;;7.10;5.60;;;5.40;99.90;;;;;;5058727;28;20423;-79
2022/02/04 18:21:55;;;;;;;5.20;4.23;;;5.50;99.90;;;;;;5077169;28;20411;-79
2022/02/04 18:24:22;;;;;;;4.27;2.80;;;5.40;99.90;;;;;;5076649;28;20240;-81
2022/02/04 18:26:48;;;;;;;5.33;3.90;;;5.40;99.90;;;;;;5075057;28;20331;-80
2022/02/04 18:29:13;;;;;;;5.77;3.80;;;5.20;99.90;;;;;;5057382;28;20455;-79
2022/02/04 18:31:39;;;;;;;4.80;3.00;;;5.10;99.90;;;;;;5075382;28;20500;-80
2022/02/04 18:34:05;;;;;;;4.67;2.40;;;5.10;99.90;;;;;;5057733;28;20184;-79
2022/02/04 18:36:32;;;;;;;3.87;2.20;;;5.00;99.90;;;;;;5075682;28;20220;-80
2022/02/04 18:42:20;;;;;;;3.57;2.40;;;4.80;99.90;;;;;;5075781;28;20426;-80
2022/02/04 18:44:47;;;;;;;4.27;2.43;;;4.80;99.90;;;;;;5075855;28;20476;-80
2022/02/04 18:47:29;;;;;;;6.33;2.90;;;4.60;99.90;;;;;;5079067;22;20505;-76
2022/02/04 18:50:03;;;;;;;4.50;2.00;;;4.50;99.90;;;;;;5055582;28;20429;-76
2022/02/04 18:57:33;;;;;;;7.77;2.70;;;4.40;99.90;;;;;;5073034;28;20463;-76
2022/02/04 19:00:04;;;;;;;4.43;3.00;;;4.40;99.90;;;;;;5055354;28;20421;-76
2022/02/04 19:02:32;;;;;;;6.07;2.80;;;4.40;99.90;;;;;;5055374;28;20403;-76
2022/02/04 19:05:05;;;;;;;5.13;2.63;;;4.40;99.90;;;;;;5055168;28;20420;-76
2022/02/04 19:07:41;;;;;;;5.97;2.40;;;4.30;99.90;;;;;;5055077;28;20490;-76
2022/02/04 19:10:07;;;;;;;3.70;2.43;;;4.30;99.90;;;;;;5055153;28;20414;-76
2022/02/04 19:12:42;;;;;;;5.17;2.50;;;4.40;99.90;;;;;;5054959;28;20544;-76
2022/02/04 19:18:00;;;;;;;6.80;2.83;;;4.50;99.90;;;;;;5073114;28;20770;-76
2022/02/04 19:20:43;;;;;;;8.53;2.67;;;4.50;99.90;;;;;;5055001;28;20516;-77
2022/02/04 19:23:13;;;;;;;5.03;1.90;;;4.50;99.90;;;;;;5055052;28;20806;-77
2022/02/04 19:25:41;;;;;;;7.40;2.33;;;4.50;99.90;;;;;;5054922;28;20812;-77
2022/02/04 19:28:09;;;;;;;5.13;2.20;;;4.50;99.90;;;;;;5055005;28;20936;-77
2022/02/04 19:30:43;;;;;;;7.20;2.13;;;4.60;99.90;;;;;;5054596;28;20426;-77
2022/02/04 19:33:09;;;;;;;5.20;2.00;;;4.50;99.90;;;;;;5054768;28;20441;-76
2022/02/04 19:35:35;;;;;;;4.50;1.87;;;4.60;99.90;;;;;;5054613;28;20557;-77
2022/02/04 19:38:02;;;;;;;3.23;1.73;;;4.60;99.90;;;;;;5054451;28;20190;-76
2022/02/04 19:40:28;;;;;;;4.63;1.90;;;4.60;99.90;;;;;;5054543;28;20425;-77
2022/02/04 19:42:54;;;;;;;5.23;2.07;;;4.50;99.90;;;;;;5054404;28;20444;-76
2022/02/04 19:45:25;;;;;;;5.53;2.40;;;4.40;99.90;;;;;;5054223;28;20195;-77
2022/02/04 19:48:20;;;;;;;6.37;2.87;;;4.30;99.90;;;;;;5054140;28;20230;-76
2022/02/04 19:50:48;;;;;;;8.50;2.30;;;4.20;99.90;;;;;;5071042;28;20433;-77
2022/02/04 19:53:49;;;;;;;5.10;2.70;;;4.10;99.90;;;;;;5054342;28;20449;-77